Markham, Texas
Current Conditions -  °F | °C
As of 6:53 PM on Tuesday 21 Oct 2014 (Local Time) from KPSX Reporting Station
Clear Clear  
Wind Chill: 75°   Ceiling: Unl
Heat Index: 75°   Visibility: 10mi
Dew Point: 60°   Wind: 10mph
Humidity: 60%   Direction: 80°E
Pressure: 29.97"   Gusts: NA
Location:  28.96°N, 96.07°W
Report Text: KPSX 212353Z AUTO 08009KT 10SM CLR 24/16 A2997 RMK AO2 SLP147 T02390156 10294 20239 53004
Loading
Personal Weather Stations






























Interactive Weather Map
Tropical Storm Tracking
New forecast layout! Learn more

10-Day Weather Forecast

Advertisements
Track Severe Weather on mobile